Terminal Aerodrome Forecast
Issued by NWS

Home | Current Version | Previous Version | Graphics & Text | Print | Product List | Glossary On
Versions: 1 2 3 4 5 6 7 8 9 10 11 12 13 14 15 16 17 18
000
FTUS43 KGRB 191956 AAA
TAFAUW
TAF AMD
KAUW 191956Z 1920/2018 29011G18KT P6SM VCSH SCT050 BKN080
      TEMPO 1920/1924 5SM -SHRA SCT035 OVC050
     FM200000 30008KT P6SM SCT035 BKN080
     FM200800 VRB03KT P6SM SCT060 BKN140
     FM201300 29007KT P6SM -SHRA SCT025 BKN040=

USA.gov is the U.S. government's official web portal to all federal, state and local government web resources and services.